Time;durP1;ratioP1;P1;durP2;ratioP2;P2;SDS_P1;SDS_P2;PMS_P1;PMS_P2;Temp;Humidity;BMP_temperature;BMP_pressure;BME280_temperature;BME280_humidity;BME280_pressure;Samples;Min_cycle;Max_cycle;Signal;HPM_P1;HPM_P2
2021/07/17 00:01:19;;;;;;;0.57;0.57;;;23.00;99.90;;;;;;20913322;28;20241;-66
2021/07/17 00:11:23;;;;;;;3.10;1.23;;;22.80;99.90;;;;;;20912277;28;20728;-68
2021/07/17 00:21:28;;;;;;;5.77;0.60;;;22.50;99.90;;;;;;20911470;28;20221;-67
2021/07/17 00:31:32;;;;;;;0.40;0.40;;;22.40;99.90;;;;;;20910941;28;20293;-68
2021/07/17 00:41:37;;;;;;;0.90;0.87;;;22.60;99.90;;;;;;20907434;28;20228;-66
2021/07/17 00:51:41;;;;;;;0.53;0.53;;;22.50;99.90;;;;;;20915218;28;20202;-66
2021/07/17 01:01:46;;;;;;;0.60;0.60;;;22.50;99.90;;;;;;20907316;28;20235;-67
2021/07/17 01:11:51;;;;;;;0.83;0.53;;;22.50;99.90;;;;;;20906119;28;20533;-66
2021/07/17 01:21:56;;;;;;;4.10;0.83;;;22.50;99.90;;;;;;20905388;28;20252;-66
2021/07/17 01:32:01;;;;;;;2.80;0.60;;;22.40;99.90;;;;;;20905724;28;20252;-68
2021/07/17 01:42:09;;;;;;;2.53;0.70;;;22.20;99.90;;;;;;20905522;28;20228;-66
2021/07/17 01:52:13;;;;;;;0.73;0.50;;;22.30;99.90;;;;;;20903349;28;20255;-66
2021/07/17 02:02:17;;;;;;;0.37;0.37;;;22.10;99.90;;;;;;20890250;22;20238;-67
2021/07/17 02:12:21;;;;;;;0.23;0.20;;;22.20;99.90;;;;;;20818949;28;20202;-67
2021/07/17 02:22:26;;;;;;;0.30;0.27;;;22.20;99.90;;;;;;20820288;28;20300;-68
2021/07/17 02:32:30;;;;;;;0.70;0.43;;;22.20;99.90;;;;;;20818750;28;20251;-68
2021/07/17 02:42:36;;;;;;;0.87;0.60;;;22.10;99.90;;;;;;20819507;28;20221;-68
2021/07/17 02:52:39;;;;;;;0.80;0.57;;;22.20;99.90;;;;;;20818801;28;20285;-69
2021/07/17 03:02:44;;;;;;;0.80;0.77;;;22.20;99.90;;;;;;20812147;28;20247;-69
2021/07/17 03:12:48;;;;;;;0.70;0.53;;;22.20;99.90;;;;;;20817542;28;20231;-69
2021/07/17 03:22:53;;;;;;;2.23;1.70;;;22.20;99.90;;;;;;20823541;28;20218;-69
2021/07/17 03:32:57;;;;;;;0.60;0.50;;;22.30;99.90;;;;;;20833106;28;20566;-68
2021/07/17 03:43:02;;;;;;;1.37;0.30;;;22.20;99.90;;;;;;20797504;28;20224;-69
2021/07/17 03:53:06;;;;;;;0.60;0.60;;;22.20;99.90;;;;;;20754623;28;20649;-67
2021/07/17 04:03:11;;;;;;;0.70;0.70;;;22.10;99.90;;;;;;20749706;28;20238;-67
2021/07/17 04:13:15;;;;;;;0.73;0.73;;;22.00;99.90;;;;;;20747820;28;20202;-68
2021/07/17 04:23:20;;;;;;;0.37;0.37;;;22.00;99.90;;;;;;20746512;28;20281;-67
2021/07/17 04:33:24;;;;;;;0.67;0.50;;;22.00;99.90;;;;;;20775362;28;20206;-69
2021/07/17 04:43:29;;;;;;;1.70;0.30;;;21.70;99.90;;;;;;20827669;28;20232;-68
2021/07/17 04:53:32;;;;;;;0.57;0.57;;;21.70;99.90;;;;;;20826920;28;20186;-69
2021/07/17 05:03:37;;;;;;;0.77;0.30;;;21.70;99.90;;;;;;20825883;28;20316;-68
2021/07/17 05:13:41;;;;;;;0.47;0.30;;;21.60;99.90;;;;;;20824593;28;20194;-69
2021/07/17 05:23:47;;;;;;;0.80;0.80;;;21.50;99.90;;;;;;20823953;28;20245;-69
2021/07/17 05:33:51;;;;;;;1.13;0.90;;;21.50;99.90;;;;;;20791209;28;20258;-69
2021/07/17 05:43:56;;;;;;;0.70;0.67;;;22.00;99.90;;;;;;20740051;28;20226;-69
2021/07/17 05:54:00;;;;;;;1.73;0.93;;;22.40;99.90;;;;;;20740209;28;20202;-69
2021/07/17 06:04:07;;;;;;;3.97;2.27;;;22.60;99.90;;;;;;20738823;28;20269;-69
2021/07/17 06:14:11;;;;;;;1.67;1.30;;;23.00;99.90;;;;;;20739580;28;20684;-69
2021/07/17 06:24:16;;;;;;;1.53;1.10;;;23.20;99.90;;;;;;20742537;28;20230;-69
2021/07/17 06:34:20;;;;;;;1.38;1.17;;;23.50;99.90;;;;;;20785321;28;20273;-69
2021/07/17 06:44:25;;;;;;;1.47;1.37;;;23.50;99.90;;;;;;20817638;28;20601;-68
2021/07/17 06:54:28;;;;;;;2.07;1.53;;;24.10;99.90;;;;;;20816252;28;20289;-69
2021/07/17 07:04:33;;;;;;;13.65;1.30;;;24.40;99.90;;;;;;20816360;28;20264;-67
2021/07/17 07:14:38;;;;;;;1.10;0.85;;;24.50;99.90;;;;;;20816830;28;20276;-68
2021/07/17 07:24:43;;;;;;;1.50;1.17;;;24.50;99.90;;;;;;20815066;28;20222;-68
2021/07/17 07:34:47;;;;;;;2.53;1.50;;;24.50;99.90;;;;;;20815857;28;20700;-68
2021/07/17 07:44:52;;;;;;;0.30;0.30;;;24.80;99.90;;;;;;20815762;28;20309;-68
2021/07/17 07:54:55;;;;;;;1.55;1.13;;;24.80;99.90;;;;;;20812564;28;20632;-68
2021/07/17 08:05:01;;;;;;;4.32;0.98;;;24.90;99.90;;;;;;20816789;28;20629;-68
2021/07/17 08:15:05;;;;;;;1.23;0.95;;;25.10;99.90;;;;;;20801738;28;20190;-68
2021/07/17 08:25:11;;;;;;;2.13;1.92;;;25.40;99.90;;;;;;20784754;28;20281;-68
2021/07/17 08:35:15;;;;;;;1.58;1.48;;;25.30;99.90;;;;;;20782071;28;20526;-68
2021/07/17 08:45:21;;;;;;;1.65;0.73;;;25.10;99.90;;;;;;20776237;28;20199;-69
2021/07/17 08:55:26;;;;;;;1.00;1.00;;;25.60;99.90;;;;;;20782633;28;20257;-69
2021/07/17 09:05:36;;;;;;;1.30;1.17;;;26.00;99.90;;;;;;20780634;28;20688;-67
2021/07/17 09:15:42;;;;;;;8.65;1.73;;;26.30;99.90;;;;;;20809089;28;20628;-69
2021/07/17 09:25:47;;;;;;;0.35;0.35;;;26.30;99.90;;;;;;20822797;28;20229;-67
2021/07/17 09:35:53;;;;;;;4.82;1.17;;;26.60;99.90;;;;;;20772023;28;20250;-66
2021/07/17 09:45:59;;;;;;;1.73;1.27;;;26.80;99.90;;;;;;20778564;28;20647;-66
2021/07/17 09:56:06;;;;;;;0.65;0.55;;;26.80;99.90;;;;;;20819306;28;20578;-64
2021/07/17 10:06:25;;;;;;;0.90;0.90;;;26.90;99.90;;;;;;20816888;28;20562;-69
2021/07/17 10:16:28;;;;;;;0.93;0.40;;;27.40;99.90;;;;;;20817793;28;20459;-66
2021/07/17 10:26:35;;;;;;;0.65;0.38;;;27.40;99.90;;;;;;20818010;28;20198;-66
2021/07/17 10:36:47;;;;;;;1.17;0.57;;;27.30;99.90;;;;;;20761149;28;20278;-65
2021/07/17 10:47:06;;;;;;;0.85;0.73;;;27.60;99.90;;;;;;20742692;28;20198;-66
2021/07/17 10:57:10;;;;;;;0.88;0.70;;;28.40;99.90;;;;;;20806449;28;20324;-67
2021/07/17 11:07:43;;;;;;;0.70;0.38;;;28.90;99.90;;;;;;20809787;28;20214;-67
2021/07/17 11:17:48;;;;;;;0.63;0.43;;;28.80;99.90;;;;;;20811724;28;20340;-66
2021/07/17 11:27:54;;;;;;;8.52;1.67;;;28.50;99.90;;;;;;20814724;28;20670;-65
2021/07/17 11:37:57;;;;;;;1.20;0.88;;;29.90;99.90;;;;;;20746312;28;20317;-65
2021/07/17 11:48:09;;;;;;;1.33;0.82;;;29.80;99.90;;;;;;20746167;28;20199;-67
2021/07/17 11:58:16;;;;;;;2.22;1.05;;;30.00;99.90;;;;;;20747328;28;20268;-64
2021/07/17 12:08:24;;;;;;;1.20;0.82;;;30.30;99.90;;;;;;20746899;28;20277;-67
2021/07/17 12:18:28;;;;;;;2.72;1.67;;;30.30;99.90;;;;;;20744253;28;20312;-66
2021/07/17 12:28:36;;;;;;;0.95;0.85;;;31.10;99.90;;;;;;20748516;28;20195;-67
2021/07/17 12:38:41;;;;;;;1.25;1.17;;;32.40;99.90;;;;;;20818407;28;20226;-64
2021/07/17 12:48:49;;;;;;;1.73;1.08;;;31.90;99.90;;;;;;20826700;28;20194;-65
2021/07/17 12:58:52;;;;;;;1.50;1.02;;;32.30;99.90;;;;;;20824749;28;20324;-66
2021/07/17 13:08:59;;;;;;;0.82;0.60;;;32.50;99.90;;;;;;20824251;28;20325;-65
2021/07/17 13:19:08;;;;;;;1.70;1.38;;;33.20;99.90;;;;;;20824935;28;20228;-65
2021/07/17 13:29:21;;;;;;;17.80;9.48;;;34.40;99.90;;;;;;20822988;28;20297;-66
2021/07/17 13:39:25;;;;;;;0.65;0.65;;;34.40;99.90;;;;;;20821712;28;20232;-65
2021/07/17 13:49:34;;;;;;;1.13;1.02;;;35.20;99.90;;;;;;20821329;28;20969;-66
2021/07/17 13:59:38;;;;;;;7.70;1.10;;;34.60;99.90;;;;;;20827729;28;20320;-67
2021/07/17 14:09:49;;;;;;;2.33;1.60;;;34.30;99.90;;;;;;20823127;28;20308;-66
2021/07/17 14:19:54;;;;;;;1.50;0.88;;;34.90;99.90;;;;;;20818700;28;20245;-66
2021/07/17 14:29:59;;;;;;;0.80;0.70;;;34.70;99.90;;;;;;20804354;28;20609;-65
2021/07/17 14:40:03;;;;;;;1.95;1.17;;;35.20;99.90;;;;;;20735825;28;21084;-64
2021/07/17 14:50:09;;;;;;;1.73;1.40;;;35.70;99.90;;;;;;20734956;28;20700;-64
2021/07/17 15:00:14;;;;;;;1.25;0.80;;;35.30;99.90;;;;;;20734553;28;20262;-65
2021/07/17 15:10:27;;;;;;;0.85;0.77;;;35.20;99.90;;;;;;20734568;28;20191;-64
2021/07/17 15:20:33;;;;;;;1.48;0.80;;;35.10;99.90;;;;;;20748865;28;20222;-66
2021/07/17 15:30:40;;;;;;;0.80;0.80;;;34.80;99.90;;;;;;20765480;28;20199;-67
2021/07/17 15:40:44;;;;;;;1.35;0.80;;;34.90;99.90;;;;;;20838629;28;20229;-64
2021/07/17 15:50:49;;;;;;;1.30;0.68;;;34.70;99.90;;;;;;20824128;28;20616;-65
2021/07/17 16:00:53;;;;;;;1.33;0.80;;;34.40;99.90;;;;;;20837723;28;20284;-65
2021/07/17 16:10:58;;;;;;;1.25;0.80;;;33.70;99.90;;;;;;20835811;28;20236;-63
2021/07/17 16:21:02;;;;;;;1.65;0.75;;;33.90;99.90;;;;;;20835317;28;20225;-65
2021/07/17 16:31:07;;;;;;;0.85;0.80;;;33.60;99.90;;;;;;20808069;28;20617;-65
2021/07/17 16:41:11;;;;;;;2.50;1.02;;;33.10;99.90;;;;;;20742169;28;20223;-65
2021/07/17 16:51:16;;;;;;;3.22;1.73;;;33.00;99.90;;;;;;20761204;28;20205;-66
2021/07/17 17:01:19;;;;;;;1.52;0.90;;;31.70;99.90;;;;;;20739431;28;20241;-65
2021/07/17 17:11:25;;;;;;;2.35;0.93;;;32.10;99.90;;;;;;20739251;28;20213;-67
2021/07/17 17:21:28;;;;;;;1.55;1.23;;;29.80;99.90;;;;;;20738998;28;20639;-65
2021/07/17 17:31:33;;;;;;;0.55;0.55;;;29.60;99.90;;;;;;20752381;28;20194;-65
2021/07/17 17:41:37;;;;;;;2.53;0.73;;;29.00;99.90;;;;;;20820648;28;20702;-64
2021/07/17 17:51:42;;;;;;;1.02;0.93;;;29.90;99.90;;;;;;20808381;28;20281;-64
2021/07/17 18:01:46;;;;;;;0.82;0.57;;;28.70;99.90;;;;;;20738227;28;20321;-64
2021/07/17 18:11:51;;;;;;;0.65;0.65;;;28.20;99.90;;;;;;20735942;28;20265;-64
2021/07/17 18:21:54;;;;;;;0.80;0.63;;;28.00;99.90;;;;;;20733846;28;20576;-65
2021/07/17 18:32:00;;;;;;;1.08;0.77;;;28.40;99.90;;;;;;20750563;28;20284;-65
2021/07/17 18:42:05;;;;;;;0.50;0.50;;;28.50;99.90;;;;;;20814250;28;20226;-64
2021/07/17 18:52:10;;;;;;;1.83;0.65;;;28.60;99.90;;;;;;20795315;28;20635;-64
2021/07/17 19:02:13;;;;;;;0.45;0.45;;;27.40;99.90;;;;;;20811783;28;20269;-65
2021/07/17 19:12:21;;;;;;;0.45;0.43;;;26.80;99.90;;;;;;20812614;28;20233;-64
2021/07/17 19:22:25;;;;;;;1.15;0.95;;;26.50;99.90;;;;;;20804626;28;20752;-66
2021/07/17 19:32:30;;;;;;;0.40;0.30;;;26.50;99.90;;;;;;20795160;28;20234;-64
2021/07/17 19:42:34;;;;;;;0.60;0.35;;;26.30;99.90;;;;;;20798735;28;20254;-66
2021/07/17 19:52:39;;;;;;;6.55;0.52;;;26.30;99.90;;;;;;20834428;28;20198;-64
2021/07/17 20:02:43;;;;;;;0.43;0.32;;;26.10;99.90;;;;;;20893533;28;20260;-65
2021/07/17 20:12:49;;;;;;;6.50;2.75;;;25.80;99.90;;;;;;20908025;28;20204;-65
2021/07/17 20:22:53;;;;;;;0.95;0.45;;;25.70;99.90;;;;;;20908884;28;20253;-64
2021/07/17 20:32:58;;;;;;;0.20;0.10;;;25.70;99.90;;;;;;20882860;28;20248;-64
2021/07/17 20:43:01;;;;;;;5.60;1.15;;;25.80;99.90;;;;;;20825079;28;20241;-64
2021/07/17 20:53:06;;;;;;;0.98;0.88;;;25.60;99.90;;;;;;20824512;28;20671;-64
2021/07/17 21:03:10;;;;;;;0.98;0.73;;;25.50;99.90;;;;;;20822521;28;20656;-65
2021/07/17 21:13:15;;;;;;;0.50;0.50;;;25.40;99.90;;;;;;20823349;28;20202;-66
2021/07/17 21:23:19;;;;;;;2.20;1.00;;;25.30;99.90;;;;;;20822257;28;20699;-66
2021/07/17 21:33:24;;;;;;;0.73;0.70;;;25.10;99.90;;;;;;20815911;28;20226;-66
2021/07/17 21:43:28;;;;;;;0.35;0.35;;;25.10;99.90;;;;;;20828764;28;20325;-65
2021/07/17 21:53:33;;;;;;;1.38;0.73;;;25.00;99.90;;;;;;20827309;28;20190;-64
2021/07/17 22:03:37;;;;;;;0.57;0.50;;;24.70;99.90;;;;;;20818971;28;20238;-66
2021/07/17 22:13:42;;;;;;;0.95;0.82;;;24.50;99.90;;;;;;20818613;28;20195;-65
2021/07/17 22:23:46;;;;;;;1.50;0.82;;;24.20;99.90;;;;;;20819542;28;20557;-64
2021/07/17 22:33:51;;;;;;;0.88;0.43;;;24.30;99.90;;;;;;20817698;28;20208;-64
2021/07/17 22:43:55;;;;;;;0.40;0.40;;;24.20;99.90;;;;;;20818144;28;20738;-64
2021/07/17 22:54:00;;;;;;;0.73;0.40;;;24.00;99.90;;;;;;20817823;28;20244;-65
2021/07/17 23:04:04;;;;;;;3.27;0.60;;;23.80;99.90;;;;;;20815467;28;20230;-65
2021/07/17 23:14:09;;;;;;;0.20;0.10;;;23.60;99.90;;;;;;20815281;28;20194;-65
2021/07/17 23:24:12;;;;;;;0.50;0.50;;;23.20;99.90;;;;;;20774213;28;20591;-66
2021/07/17 23:34:17;;;;;;;1.13;0.73;;;23.20;99.90;;;;;;20770901;28;20202;-65
2021/07/17 23:44:21;;;;;;;0.83;0.40;;;23.20;99.90;;;;;;20786864;28;20245;-65
2021/07/17 23:54:27;;;;;;;1.10;1.03;;;23.20;99.90;;;;;;20772261;28;20703;-65
